createdAt,value
2023-01-04T00:02:18.405Z,10.27
2023-01-04T00:04:45.227Z,11.25
2023-01-04T00:07:11.981Z,12.23
2023-01-04T00:09:38.700Z,13.55
2023-01-04T00:12:05.718Z,14.65
2023-01-04T00:14:32.481Z,14.35
2023-01-04T00:16:59.304Z,12.65
2023-01-04T00:19:26.192Z,9.07
2023-01-04T00:21:53.287Z,8.65
2023-01-04T00:24:20.121Z,8.85
2023-01-04T00:26:46.882Z,9.98
2023-01-04T00:29:13.909Z,10.27
2023-01-04T00:31:41.225Z,10.70
2023-01-04T00:34:10.809Z,11.05
2023-01-04T00:36:37.618Z,10.85
2023-01-04T00:39:08.198Z,11.23
2023-01-04T00:42:00.190Z,11.68
2023-01-04T00:44:28.896Z,11.85
2023-01-04T00:46:56.081Z,11.13
2023-01-04T00:49:22.898Z,11.73
2023-01-04T00:51:49.624Z,10.52
2023-01-04T00:54:17.211Z,10.98
2023-01-04T00:56:44.318Z,10.55
2023-01-04T00:59:13.899Z,12.50
2023-01-04T01:01:42.041Z,12.38
2023-01-04T01:04:15.742Z,13.57
2023-01-04T01:06:42.582Z,15.10
2023-01-04T01:09:09.750Z,14.10
2023-01-04T01:11:38.994Z,15.45
2023-01-04T01:14:07.133Z,17.85
2023-01-04T01:19:20.895Z,16.40
2023-01-04T01:21:47.688Z,16.67
2023-01-04T01:24:17.265Z,14.77
2023-01-04T01:26:44.174Z,16.85
2023-01-04T01:29:11.192Z,17.23
2023-01-04T01:31:38.155Z,17.55
2023-01-04T01:34:05.008Z,14.93
2023-01-04T01:36:31.878Z,15.93
2023-01-04T01:38:59.616Z,15.40
2023-01-04T01:41:29.187Z,15.55
2023-01-04T01:44:01.644Z,19.30
2023-01-04T01:46:38.929Z,15.55
2023-01-04T01:49:10.577Z,15.93
2023-01-04T01:51:38.261Z,16.38
2023-01-04T01:54:13.246Z,15.35
2023-01-04T01:56:42.545Z,14.75
2023-01-04T01:59:11.227Z,16.52
2023-01-04T02:01:38.278Z,15.43
2023-01-04T02:04:05.798Z,18.75
2023-01-04T02:06:40.444Z,15.57
2023-01-04T02:09:07.975Z,17.15
2023-01-04T02:11:34.843Z,15.80
2023-01-04T02:14:23.353Z,15.93
2023-01-04T02:17:07.397Z,16.77
2023-01-04T02:20:14.122Z,16.27
2023-01-04T02:23:02.078Z,17.13
2023-01-04T02:25:47.451Z,17.17
2023-01-04T02:28:43.681Z,16.52
2023-01-04T02:31:38.322Z,17.02
2023-01-04T02:34:15.386Z,18.02
2023-01-04T02:37:08.321Z,16.85
2023-01-04T02:39:48.112Z,17.65
2023-01-04T02:43:02.734Z,19.63
2023-01-04T02:49:21.611Z,19.92
2023-01-04T02:51:48.408Z,19.88
2023-01-04T02:54:21.875Z,18.75
2023-01-04T02:59:56.477Z,18.27
2023-01-04T03:03:13.216Z,16.98
2023-01-04T03:06:17.132Z,18.33
2023-01-04T03:09:00.079Z,19.42
2023-01-04T03:11:54.813Z,19.48
2023-01-04T03:14:31.680Z,19.52
2023-01-04T03:17:05.828Z,17.88
2023-01-04T03:19:54.614Z,19.42
2023-01-04T03:22:57.749Z,19.48
2023-01-04T03:25:56.771Z,19.85
2023-01-04T03:28:43.839Z,18.88
2023-01-04T03:31:42.361Z,18.17
2023-01-04T03:34:27.605Z,19.83
2023-01-04T03:37:09.086Z,17.65
2023-01-04T03:40:01.482Z,18.95
2023-01-04T03:42:47.635Z,19.70
2023-01-04T03:45:42.527Z,20.33
2023-01-04T03:48:34.405Z,17.17
2023-01-04T03:51:15.195Z,14.38
2023-01-04T03:53:53.879Z,14.23
2023-01-04T03:56:23.073Z,12.75
2023-01-04T03:58:52.199Z,13.68
2023-01-04T04:01:20.762Z,13.93
2023-01-04T04:04:06.604Z,15.05
2023-01-04T04:06:51.899Z,14.82
2023-01-04T04:09:18.609Z,13.65
2023-01-04T04:11:45.351Z,14.63
2023-01-04T04:14:12.070Z,14.85
2023-01-04T04:16:38.853Z,15.75
2023-01-04T04:19:08.867Z,16.50
2023-01-04T04:21:36.201Z,14.93
2023-01-04T04:24:03.776Z,14.30
2023-01-04T04:26:30.635Z,13.30
2023-01-04T04:28:57.350Z,13.60
2023-01-04T04:31:24.232Z,14.55
2023-01-04T04:33:50.980Z,13.85
2023-01-04T04:36:17.782Z,14.40
2023-01-04T04:38:44.541Z,13.95
2023-01-04T04:41:32.204Z,13.77
2023-01-04T04:43:58.968Z,14.35
2023-01-04T04:46:25.864Z,12.93
2023-01-04T04:48:52.644Z,14.73
2023-01-04T04:51:19.712Z,13.32
2023-01-04T04:53:46.630Z,14.25
2023-01-04T04:56:13.372Z,14.00
2023-01-04T04:58:40.627Z,14.80
2023-01-04T05:01:07.956Z,15.07
2023-01-04T05:03:35.433Z,13.57
2023-01-04T05:06:02.719Z,13.38
2023-01-04T05:08:29.772Z,13.35
2023-01-04T05:10:56.511Z,13.40
2023-01-04T05:13:23.779Z,13.25
2023-01-04T05:15:52.729Z,12.38
2023-01-04T05:18:21.105Z,13.52
2023-01-04T05:20:48.561Z,12.80
2023-01-04T05:23:17.623Z,14.00
2023-01-04T05:25:44.640Z,12.18
2023-01-04T05:28:12.033Z,12.07
2023-01-04T05:30:50.966Z,12.40
2023-01-04T05:33:37.963Z,12.50
2023-01-04T05:36:04.864Z,12.02
2023-01-04T05:38:31.659Z,11.23
2023-01-04T05:40:58.355Z,9.77
2023-01-04T05:43:25.307Z,10.05
2023-01-04T05:45:56.420Z,9.50
2023-01-04T05:48:24.452Z,9.68
2023-01-04T05:50:51.260Z,10.32
2023-01-04T05:53:18.830Z,10.93
2023-01-04T05:55:48.487Z,10.65
2023-01-04T05:58:15.787Z,11.23
2023-01-04T06:00:42.635Z,11.10
2023-01-04T06:03:09.431Z,10.23
2023-01-04T06:05:36.305Z,12.43
2023-01-04T06:08:03.088Z,11.52
2023-01-04T06:10:29.835Z,12.40
2023-01-04T06:12:56.575Z,12.13
2023-01-04T06:15:23.327Z,11.88
2023-01-04T06:17:50.244Z,12.10
2023-01-04T06:20:17.074Z,11.70
2023-01-04T06:22:43.919Z,12.75
2023-01-04T06:25:10.727Z,12.23
2023-01-04T06:27:37.532Z,12.10
2023-01-04T06:30:05.414Z,12.30
2023-01-04T06:32:32.864Z,12.00
2023-01-04T06:34:59.617Z,11.77
2023-01-04T06:37:26.323Z,12.20
2023-01-04T06:39:53.105Z,12.55
2023-01-04T06:42:38.572Z,11.02
2023-01-04T06:45:05.956Z,11.57
2023-01-04T06:47:32.665Z,12.07
2023-01-04T06:49:59.406Z,11.18
2023-01-04T06:52:26.625Z,10.27
2023-01-04T06:54:53.359Z,10.93
2023-01-04T06:57:20.364Z,10.63
2023-01-04T06:59:47.122Z,10.40
2023-01-04T07:02:15.191Z,12.43
2023-01-04T07:04:43.136Z,10.80
2023-01-04T07:07:10.903Z,10.02
2023-01-04T07:09:38.720Z,11.00
2023-01-04T07:12:06.059Z,10.13
2023-01-04T07:14:32.903Z,11.40
2023-01-04T07:16:59.649Z,10.88
2023-01-04T07:19:26.406Z,10.63
2023-01-04T07:21:53.806Z,10.50
2023-01-04T07:24:26.214Z,11.18
2023-01-04T07:26:56.672Z,10.18
2023-01-04T07:29:23.447Z,10.45
2023-01-04T07:31:52.295Z,10.07
2023-01-04T07:34:22.309Z,9.75
2023-01-04T07:36:49.886Z,10.60
2023-01-04T07:39:18.035Z,11.20
2023-01-04T07:41:45.630Z,10.95
2023-01-04T07:44:13.249Z,10.55
2023-01-04T07:46:40.538Z,11.32
2023-01-04T07:49:11.576Z,11.85
2023-01-04T07:51:41.917Z,11.63
2023-01-04T07:54:10.048Z,12.23
2023-01-04T07:56:37.041Z,11.43
2023-01-04T07:59:08.576Z,11.90
2023-01-04T08:01:37.877Z,11.02
2023-01-04T08:04:09.074Z,11.38
2023-01-04T08:06:36.898Z,12.00
2023-01-04T08:09:04.835Z,11.65
2023-01-04T08:11:32.052Z,11.18
2023-01-04T08:13:58.814Z,11.57
2023-01-04T08:16:28.046Z,12.05
2023-01-04T08:18:56.057Z,12.30
2023-01-04T08:21:24.218Z,10.73
2023-01-04T08:23:52.193Z,10.38
2023-01-04T08:26:19.489Z,10.85
2023-01-04T08:28:46.293Z,11.05
2023-01-04T08:31:16.802Z,10.38
2023-01-04T08:33:44.410Z,11.00
2023-01-04T08:36:29.308Z,10.50
2023-01-04T08:39:04.869Z,10.60
2023-01-04T08:41:58.254Z,10.35
2023-01-04T08:44:25.026Z,11.20
2023-01-04T08:46:53.279Z,9.95
2023-01-04T08:49:21.124Z,10.73
2023-01-04T08:51:48.725Z,10.27
2023-01-04T08:54:17.073Z,10.52
2023-01-04T08:56:43.948Z,9.95
2023-01-04T08:59:12.900Z,10.23
2023-01-04T09:01:40.451Z,9.70
2023-01-04T09:04:07.894Z,10.30
2023-01-04T09:06:34.954Z,9.88
2023-01-04T09:09:01.928Z,9.57
2023-01-04T09:11:28.883Z,10.48
2023-01-04T09:14:04.612Z,10.93
2023-01-04T09:16:33.989Z,10.02
2023-01-04T09:19:00.754Z,11.00
2023-01-04T09:21:27.862Z,9.05
2023-01-04T09:23:56.291Z,9.82
2023-01-04T09:26:23.618Z,9.90
2023-01-04T09:28:52.176Z,9.70
2023-01-04T09:31:21.910Z,8.82
2023-01-04T09:34:13.923Z,9.60
2023-01-04T09:36:35.747Z,9.45
2023-01-04T09:39:02.507Z,9.95
2023-01-04T09:41:42.989Z,10.23
2023-01-04T09:44:09.792Z,9.02
2023-01-04T09:46:52.988Z,9.48
2023-01-04T09:49:29.040Z,10.05
2023-01-04T09:52:03.718Z,10.25
2023-01-04T09:54:46.216Z,9.93
2023-01-04T09:57:41.873Z,10.75
2023-01-04T10:00:19.808Z,10.95
2023-01-04T10:03:08.821Z,10.15
2023-01-04T10:05:35.771Z,11.18
2023-01-04T10:08:03.346Z,10.40
2023-01-04T10:10:56.283Z,11.65
2023-01-04T10:13:31.461Z,10.48
2023-01-04T10:16:15.114Z,11.00
2023-01-04T10:19:29.003Z,10.45
2023-01-04T10:21:59.013Z,10.73
2023-01-04T10:24:48.438Z,10.98
2023-01-04T10:27:17.962Z,10.73
2023-01-04T10:29:56.084Z,12.15
2023-01-04T10:32:43.696Z,12.45
2023-01-04T10:35:25.949Z,11.93
2023-01-04T10:38:02.001Z,11.52
2023-01-04T10:40:31.407Z,11.40
2023-01-04T10:43:16.615Z,11.80
2023-01-04T10:46:14.532Z,11.02
2023-01-04T10:48:58.865Z,11.30
2023-01-04T10:51:58.833Z,11.02
2023-01-04T10:54:33.054Z,10.15
2023-01-04T10:57:15.665Z,10.80
2023-01-04T10:59:48.891Z,11.15
2023-01-04T11:02:27.894Z,11.65
2023-01-04T11:05:14.152Z,10.70
2023-01-04T11:07:50.131Z,11.30
2023-01-04T11:10:31.620Z,11.95
2023-01-04T11:12:58.566Z,11.70
2023-01-04T11:15:25.270Z,11.45
2023-01-04T11:17:52.222Z,11.57
2023-01-04T11:20:21.715Z,10.88
2023-01-04T11:22:59.058Z,11.20
2023-01-04T11:25:35.775Z,11.55
2023-01-04T11:28:23.927Z,10.60
2023-01-04T11:31:02.316Z,11.30
2023-01-04T11:33:29.336Z,11.23
2023-01-04T11:35:59.518Z,11.50
2023-01-04T11:38:28.649Z,11.18
2023-01-04T11:41:02.465Z,10.95
2023-01-04T11:43:31.811Z,9.98
2023-01-04T11:46:03.599Z,10.50
2023-01-04T11:48:42.266Z,9.13
2023-01-04T11:51:32.329Z,9.75
2023-01-04T11:54:05.546Z,8.20
2023-01-04T11:56:34.648Z,9.95
2023-01-04T11:59:08.778Z,8.93
2023-01-04T12:01:38.201Z,8.80
2023-01-04T12:04:14.129Z,9.18
2023-01-04T12:07:02.188Z,8.20
2023-01-04T12:09:30.914Z,8.93
2023-01-04T12:12:00.281Z,8.05
2023-01-04T12:14:34.293Z,9.23
2023-01-04T12:17:24.796Z,8.38
2023-01-04T12:19:55.236Z,8.30
2023-01-04T12:22:38.365Z,8.25
2023-01-04T12:25:19.551Z,8.70
2023-01-04T12:27:51.468Z,8.27
2023-01-04T12:30:39.399Z,8.20
2023-01-04T12:33:34.227Z,7.20
2023-01-04T12:36:41.573Z,8.18
2023-01-04T12:39:14.526Z,7.53
2023-01-04T12:41:41.219Z,8.05
2023-01-04T12:44:38.915Z,6.82
2023-01-04T12:47:39.368Z,7.30
2023-01-04T12:50:08.271Z,7.05
2023-01-04T12:52:55.203Z,6.90
2023-01-04T12:55:27.628Z,7.30
2023-01-04T12:57:54.484Z,6.68
2023-01-04T13:00:21.376Z,7.35
2023-01-04T13:03:18.336Z,6.90
2023-01-04T13:06:04.582Z,6.65
2023-01-04T13:08:33.287Z,6.75
2023-01-04T13:11:04.114Z,6.78
2023-01-04T13:13:57.147Z,6.55
2023-01-04T13:16:45.235Z,6.50
2023-01-04T13:19:24.172Z,5.35
2023-01-04T13:21:52.517Z,5.30
2023-01-04T13:24:32.297Z,5.22
2023-01-04T13:27:13.892Z,5.00
2023-01-04T13:29:41.520Z,5.70
2023-01-04T13:32:28.055Z,5.25
2023-01-04T13:34:59.645Z,5.25
2023-01-04T13:37:31.335Z,4.97
2023-01-04T13:40:27.889Z,5.07
2023-01-04T13:43:16.159Z,4.63
2023-01-04T13:46:13.218Z,4.75
2023-01-04T13:48:43.131Z,4.60
2023-01-04T13:51:36.201Z,4.40
2023-01-04T13:54:06.521Z,4.03
2023-01-04T13:56:34.707Z,4.18
2023-01-04T13:59:01.762Z,3.95
2023-01-04T14:01:35.693Z,3.95
2023-01-04T14:04:05.784Z,3.97
2023-01-04T14:06:44.358Z,4.03
2023-01-04T14:09:11.086Z,3.72
2023-01-04T14:12:07.181Z,3.92
2023-01-04T14:14:37.490Z,3.67
2023-01-04T14:17:10.105Z,3.60
2023-01-04T14:19:48.391Z,3.80
2023-01-04T14:22:36.867Z,3.35
2023-01-04T14:25:35.611Z,3.20
2023-01-04T14:28:24.608Z,3.35
2023-01-04T14:30:59.044Z,3.38
2023-01-04T14:33:33.468Z,3.42
2023-01-04T14:36:09.582Z,2.83
2023-01-04T14:38:52.019Z,3.33
2023-01-04T14:41:24.699Z,2.95
2023-01-04T14:43:53.791Z,3.03
2023-01-04T14:46:22.686Z,2.60
2023-01-04T14:48:49.773Z,3.00
2023-01-04T14:51:20.133Z,3.25
2023-01-04T14:53:48.265Z,3.28
2023-01-04T14:56:17.598Z,3.63
2023-01-04T14:58:44.917Z,3.25
2023-01-04T15:01:12.425Z,3.33
2023-01-04T15:03:39.375Z,2.97
2023-01-04T15:06:06.930Z,3.28
2023-01-04T15:08:34.216Z,3.10
2023-01-04T15:11:00.933Z,3.10
2023-01-04T15:13:32.122Z,2.80
2023-01-04T15:16:01.854Z,2.90
2023-01-04T15:18:29.560Z,3.00
2023-01-04T15:20:56.446Z,2.80
2023-01-04T15:23:23.198Z,2.75
2023-01-04T15:25:49.962Z,2.80
2023-01-04T15:28:16.714Z,2.95
2023-01-04T15:30:44.391Z,2.67
2023-01-04T15:33:11.134Z,2.63
2023-01-04T15:35:37.859Z,2.28
2023-01-04T15:38:06.712Z,2.10
2023-01-04T15:40:35.783Z,2.30
2023-01-04T15:43:03.660Z,2.08
2023-01-04T15:45:35.836Z,2.10
2023-01-04T15:48:07.967Z,1.92
2023-01-04T15:50:37.849Z,2.38
2023-01-04T15:53:08.430Z,2.35
2023-01-04T15:55:36.941Z,2.10
2023-01-04T15:58:05.572Z,2.10
2023-01-04T16:00:32.803Z,1.90
2023-01-04T16:02:59.739Z,2.00
2023-01-04T16:05:26.658Z,1.70
2023-01-04T16:07:53.426Z,1.77
2023-01-04T16:10:20.176Z,2.10
2023-01-04T16:12:52.979Z,2.28
2023-01-04T16:15:23.517Z,2.00
2023-01-04T16:17:50.260Z,1.88
2023-01-04T16:20:20.304Z,2.00
2023-01-04T16:22:47.106Z,1.80
2023-01-04T16:25:14.478Z,1.80
2023-01-04T16:27:42.030Z,1.80
2023-01-04T16:30:12.351Z,1.95
2023-01-04T16:32:43.801Z,1.70
2023-01-04T16:35:11.244Z,1.88
2023-01-04T16:37:38.003Z,2.05
2023-01-04T16:40:07.226Z,2.28
2023-01-04T16:42:36.195Z,1.88
2023-01-04T16:45:03.385Z,2.10
2023-01-04T16:47:41.978Z,1.80
2023-01-04T16:50:10.393Z,2.13
2023-01-04T16:52:37.609Z,1.85
2023-01-04T16:55:05.402Z,2.00
2023-01-04T16:57:32.400Z,1.90
2023-01-04T16:59:59.146Z,2.05
2023-01-04T17:02:25.923Z,2.33
2023-01-04T17:04:59.353Z,1.88
2023-01-04T17:10:01.024Z,2.00
2023-01-04T17:15:41.815Z,2.20
2023-01-04T17:18:01.433Z,2.10
2023-01-04T17:20:28.218Z,2.25
2023-01-04T17:22:54.926Z,1.67
2023-01-04T17:25:21.651Z,2.13
2023-01-04T17:27:48.382Z,1.80
2023-01-04T17:30:15.253Z,2.20
2023-01-04T17:32:42.048Z,2.20
2023-01-04T17:35:08.931Z,1.92
2023-01-04T17:37:35.670Z,2.20
2023-01-04T17:40:03.179Z,2.30
2023-01-04T17:42:33.157Z,2.05
2023-01-04T17:44:59.976Z,2.28
2023-01-04T17:47:26.699Z,2.20
2023-01-04T17:49:53.410Z,2.35
2023-01-04T17:52:25.912Z,1.98
2023-01-04T17:54:57.260Z,2.42
2023-01-04T17:57:24.020Z,2.60
2023-01-04T17:59:50.865Z,2.50
2023-01-04T18:02:17.653Z,2.30
2023-01-04T18:04:44.677Z,2.30
2023-01-04T18:09:39.091Z,2.53
2023-01-04T18:12:05.943Z,2.75
2023-01-04T18:14:32.744Z,2.40
2023-01-04T18:16:59.773Z,2.30
2023-01-04T18:19:29.051Z,2.72
2023-01-04T18:21:56.540Z,2.53
2023-01-04T18:24:39.466Z,2.35
2023-01-04T18:27:27.424Z,2.40
2023-01-04T18:29:55.708Z,2.35
2023-01-04T18:32:23.969Z,2.17
2023-01-04T18:34:50.761Z,2.38
2023-01-04T18:37:18.580Z,2.28
2023-01-04T18:39:46.223Z,2.38
2023-01-04T18:42:13.128Z,2.45
2023-01-04T18:44:47.365Z,2.70
2023-01-04T18:47:15.609Z,2.53
2023-01-04T18:49:42.430Z,2.10
2023-01-04T18:52:09.217Z,2.13
2023-01-04T18:54:36.046Z,2.15
2023-01-04T18:57:03.198Z,2.40
2023-01-04T18:59:30.173Z,2.17
2023-01-04T19:02:00.883Z,2.30
2023-01-04T19:04:33.901Z,2.60
2023-01-04T19:07:01.182Z,2.78
2023-01-04T19:09:28.187Z,2.20
2023-01-04T19:11:55.003Z,1.75
2023-01-04T19:14:21.936Z,2.00
2023-01-04T19:16:49.285Z,1.83
2023-01-04T19:19:16.462Z,1.70
2023-01-04T19:21:43.297Z,2.50
2023-01-04T19:24:10.369Z,2.08
2023-01-04T19:26:37.502Z,2.00
2023-01-04T19:29:05.436Z,2.10
2023-01-04T19:31:32.262Z,2.22
2023-01-04T19:33:59.073Z,2.15
2023-01-04T19:36:25.995Z,1.92
2023-01-04T19:38:54.925Z,1.90
2023-01-04T19:41:32.803Z,1.73
2023-01-04T19:44:10.734Z,1.65
2023-01-04T19:46:39.125Z,1.50
2023-01-04T19:49:14.206Z,1.58
2023-01-04T19:51:43.750Z,1.40
2023-01-04T19:54:11.230Z,1.88
2023-01-04T19:56:38.184Z,1.60
2023-01-04T19:59:06.707Z,2.08
2023-01-04T20:01:33.866Z,1.80
2023-01-04T20:04:00.779Z,1.45
2023-01-04T20:06:27.515Z,1.60
2023-01-04T20:08:54.283Z,1.70
2023-01-04T20:11:20.995Z,1.65
2023-01-04T20:13:47.791Z,1.50
2023-01-04T20:16:14.537Z,1.40
2023-01-04T20:18:41.279Z,1.60
2023-01-04T20:21:12.733Z,1.52
2023-01-04T20:23:39.901Z,1.55
2023-01-04T20:26:11.642Z,1.63
2023-01-04T20:28:38.990Z,1.55
2023-01-04T20:31:07.699Z,1.35
2023-01-04T20:33:34.469Z,1.20
2023-01-04T20:36:09.353Z,1.20
2023-01-04T20:38:40.205Z,1.15
2023-01-04T20:41:09.788Z,1.48
2023-01-04T20:43:37.241Z,1.10
2023-01-04T20:46:09.759Z,1.40
2023-01-04T20:48:36.559Z,1.17
2023-01-04T20:51:13.219Z,1.25
2023-01-04T20:53:39.988Z,1.30
2023-01-04T20:56:28.391Z,1.17
2023-01-04T20:58:55.537Z,1.10
2023-01-04T21:01:22.920Z,1.20
2023-01-04T21:03:49.950Z,1.20
2023-01-04T21:06:18.552Z,1.30
2023-01-04T21:08:46.553Z,1.10
2023-01-04T21:11:14.257Z,1.05
2023-01-04T21:13:42.018Z,1.38
2023-01-04T21:16:09.828Z,0.98
2023-01-04T21:18:37.199Z,1.45
2023-01-04T21:21:08.983Z,1.00
2023-01-04T21:23:36.532Z,1.15
2023-01-04T21:26:08.354Z,1.17
2023-01-04T21:28:35.610Z,1.33
2023-01-04T21:31:02.468Z,1.17
2023-01-04T21:33:29.697Z,1.02
2023-01-04T21:35:56.401Z,1.15
2023-01-04T21:38:23.232Z,1.00
2023-01-04T21:40:49.948Z,0.80
2023-01-04T21:43:17.904Z,1.05
2023-01-04T21:45:44.857Z,1.00
2023-01-04T21:48:11.555Z,1.00
2023-01-04T21:50:38.335Z,0.90
2023-01-04T21:53:05.103Z,0.73
2023-01-04T21:55:34.812Z,0.77
2023-01-04T21:58:02.554Z,0.75
2023-01-04T22:00:29.664Z,0.70
2023-01-04T22:02:56.493Z,0.90
2023-01-04T22:05:23.340Z,0.88
2023-01-04T22:07:50.222Z,0.90
2023-01-04T22:10:17.062Z,0.77
2023-01-04T22:12:44.868Z,0.80
2023-01-04T22:15:11.695Z,0.90
2023-01-04T22:17:38.553Z,0.82
2023-01-04T22:20:05.853Z,0.90
2023-01-04T22:22:32.637Z,0.57
2023-01-04T22:24:59.336Z,0.90
2023-01-04T22:27:26.177Z,0.80
2023-01-04T22:29:52.978Z,0.80
2023-01-04T22:32:19.691Z,0.65
2023-01-04T22:34:46.395Z,0.90
2023-01-04T22:37:13.152Z,0.90
2023-01-04T22:39:39.863Z,0.90
2023-01-04T22:42:06.575Z,1.08
2023-01-04T22:44:33.370Z,0.90
2023-01-04T22:47:00.147Z,0.75
2023-01-04T22:49:27.055Z,0.90
2023-01-04T22:51:55.699Z,0.77
2023-01-04T22:54:22.528Z,0.80
2023-01-04T22:56:49.551Z,1.10
2023-01-04T22:59:16.335Z,0.80
2023-01-04T23:01:43.086Z,0.80
2023-01-04T23:04:10.533Z,0.80
2023-01-04T23:06:37.384Z,0.90
2023-01-04T23:09:06.126Z,1.00
2023-01-04T23:11:34.337Z,1.02
2023-01-04T23:14:06.428Z,0.68
2023-01-04T23:16:33.743Z,0.68
2023-01-04T23:19:05.351Z,0.60
2023-01-04T23:21:33.767Z,0.82
2023-01-04T23:24:00.941Z,0.85
2023-01-04T23:26:29.646Z,0.70
2023-01-04T23:28:56.944Z,0.85
2023-01-04T23:31:26.324Z,0.90
2023-01-04T23:33:58.618Z,0.90
2023-01-04T23:36:31.272Z,0.88
2023-01-04T23:39:00.278Z,0.77
2023-01-04T23:41:46.550Z,1.10
2023-01-04T23:44:26.590Z,1.00
2023-01-04T23:46:55.647Z,1.00
2023-01-04T23:49:24.062Z,1.00
2023-01-04T23:51:51.210Z,0.80
2023-01-04T23:54:19.022Z,0.60
2023-01-04T23:56:45.911Z,0.90
2023-01-04T23:59:12.670Z,0.80
